sensor_id;sensor_type;location;lat;lon;timestamp;P1;durP1;ratioP1;P2;durP2;ratioP2
51866;SDS011;52862;52.504;13.480;2023-04-24T00:00:59;8.43;;;5.23;;
51866;SDS011;52862;52.504;13.480;2023-04-24T00:03:26;13.50;;;5.77;;
51866;SDS011;52862;52.504;13.480;2023-04-24T00:05:53;8.20;;;4.70;;
51866;SDS011;52862;52.504;13.480;2023-04-24T00:08:20;18.00;;;4.80;;
51866;SDS011;52862;52.504;13.480;2023-04-24T00:10:48;7.33;;;5.20;;
51866;SDS011;52862;52.504;13.480;2023-04-24T00:13:15;11.83;;;5.33;;
51866;SDS011;52862;52.504;13.480;2023-04-24T00:15:42;8.20;;;5.77;;
51866;SDS011;52862;52.504;13.480;2023-04-24T00:18:08;9.93;;;5.23;;
51866;SDS011;52862;52.504;13.480;2023-04-24T00:20:35;8.70;;;5.43;;
51866;SDS011;52862;52.504;13.480;2023-04-24T00:23:02;9.83;;;5.03;;
51866;SDS011;52862;52.504;13.480;2023-04-24T00:25:29;11.17;;;5.10;;
51866;SDS011;52862;52.504;13.480;2023-04-24T00:27:56;10.97;;;5.13;;
51866;SDS011;52862;52.504;13.480;2023-04-24T00:30:22;7.73;;;5.37;;
51866;SDS011;52862;52.504;13.480;2023-04-24T00:32:49;11.43;;;5.13;;
51866;SDS011;52862;52.504;13.480;2023-04-24T00:35:16;7.77;;;5.13;;
51866;SDS011;52862;52.504;13.480;2023-04-24T00:37:45;7.47;;;5.63;;
51866;SDS011;52862;52.504;13.480;2023-04-24T00:40:11;7.67;;;4.90;;
51866;SDS011;52862;52.504;13.480;2023-04-24T00:42:38;7.13;;;5.20;;
51866;SDS011;52862;52.504;13.480;2023-04-24T00:45:07;11.70;;;5.00;;
51866;SDS011;52862;52.504;13.480;2023-04-24T00:47:34;9.87;;;5.57;;
51866;SDS011;52862;52.504;13.480;2023-04-24T00:50:02;9.47;;;5.23;;
51866;SDS011;52862;52.504;13.480;2023-04-24T00:52:30;8.30;;;5.10;;
51866;SDS011;52862;52.504;13.480;2023-04-24T00:54:57;12.80;;;6.30;;
51866;SDS011;52862;52.504;13.480;2023-04-24T00:57:24;9.23;;;5.70;;
51866;SDS011;52862;52.504;13.480;2023-04-24T00:59:51;8.30;;;5.20;;
51866;SDS011;52862;52.504;13.480;2023-04-24T01:02:19;6.63;;;4.93;;
51866;SDS011;52862;52.504;13.480;2023-04-24T01:04:47;8.30;;;5.27;;
51866;SDS011;52862;52.504;13.480;2023-04-24T01:07:15;13.60;;;5.37;;
51866;SDS011;52862;52.504;13.480;2023-04-24T01:09:41;10.57;;;5.80;;
51866;SDS011;52862;52.504;13.480;2023-04-24T01:12:22;8.97;;;5.07;;
51866;SDS011;52862;52.504;13.480;2023-04-24T01:14:50;7.80;;;5.00;;
51866;SDS011;52862;52.504;13.480;2023-04-24T01:17:17;11.80;;;5.67;;
51866;SDS011;52862;52.504;13.480;2023-04-24T01:19:44;13.83;;;6.13;;
51866;SDS011;52862;52.504;13.480;2023-04-24T01:22:12;7.63;;;5.50;;
51866;SDS011;52862;52.504;13.480;2023-04-24T01:24:39;8.87;;;5.73;;
51866;SDS011;52862;52.504;13.480;2023-04-24T01:27:08;10.80;;;5.37;;
51866;SDS011;52862;52.504;13.480;2023-04-24T01:29:47;7.63;;;5.23;;
51866;SDS011;52862;52.504;13.480;2023-04-24T01:32:17;9.03;;;6.10;;
51866;SDS011;52862;52.504;13.480;2023-04-24T01:34:45;8.30;;;5.67;;
51866;SDS011;52862;52.504;13.480;2023-04-24T01:37:13;15.57;;;6.23;;
51866;SDS011;52862;52.504;13.480;2023-04-24T01:39:40;10.57;;;5.53;;
51866;SDS011;52862;52.504;13.480;2023-04-24T01:42:07;17.83;;;6.13;;
51866;SDS011;52862;52.504;13.480;2023-04-24T01:44:34;8.70;;;6.07;;
51866;SDS011;52862;52.504;13.480;2023-04-24T01:47:01;10.63;;;5.40;;
51866;SDS011;52862;52.504;13.480;2023-04-24T01:49:28;11.17;;;5.57;;
51866;SDS011;52862;52.504;13.480;2023-04-24T01:51:54;11.40;;;5.60;;
51866;SDS011;52862;52.504;13.480;2023-04-24T01:54:22;10.20;;;6.10;;
51866;SDS011;52862;52.504;13.480;2023-04-24T01:56:48;8.43;;;5.87;;
51866;SDS011;52862;52.504;13.480;2023-04-24T01:59:15;14.23;;;6.10;;
51866;SDS011;52862;52.504;13.480;2023-04-24T02:01:43;9.17;;;5.77;;
51866;SDS011;52862;52.504;13.480;2023-04-24T02:04:10;8.13;;;5.67;;
51866;SDS011;52862;52.504;13.480;2023-04-24T02:06:37;7.80;;;5.40;;
51866;SDS011;52862;52.504;13.480;2023-04-24T02:09:03;9.73;;;5.93;;
51866;SDS011;52862;52.504;13.480;2023-04-24T02:11:31;14.40;;;6.80;;
51866;SDS011;52862;52.504;13.480;2023-04-24T02:13:58;10.23;;;6.67;;
51866;SDS011;52862;52.504;13.480;2023-04-24T02:16:25;7.10;;;5.40;;
51866;SDS011;52862;52.504;13.480;2023-04-24T02:18:51;7.57;;;5.57;;
51866;SDS011;52862;52.504;13.480;2023-04-24T02:21:18;9.40;;;5.73;;
51866;SDS011;52862;52.504;13.480;2023-04-24T02:23:45;11.73;;;5.77;;
51866;SDS011;52862;52.504;13.480;2023-04-24T02:26:12;13.53;;;5.97;;
51866;SDS011;52862;52.504;13.480;2023-04-24T02:28:39;10.17;;;6.43;;
51866;SDS011;52862;52.504;13.480;2023-04-24T02:31:06;8.60;;;6.03;;
51866;SDS011;52862;52.504;13.480;2023-04-24T02:33:32;8.17;;;5.70;;
51866;SDS011;52862;52.504;13.480;2023-04-24T02:35:59;10.80;;;6.73;;
51866;SDS011;52862;52.504;13.480;2023-04-24T02:38:26;11.30;;;6.53;;
51866;SDS011;52862;52.504;13.480;2023-04-24T02:40:52;12.90;;;6.50;;
51866;SDS011;52862;52.504;13.480;2023-04-24T02:43:19;10.43;;;6.03;;
51866;SDS011;52862;52.504;13.480;2023-04-24T02:45:46;9.90;;;6.17;;
51866;SDS011;52862;52.504;13.480;2023-04-24T02:48:13;11.10;;;6.37;;
51866;SDS011;52862;52.504;13.480;2023-04-24T02:50:40;10.23;;;6.70;;
51866;SDS011;52862;52.504;13.480;2023-04-24T02:53:07;16.20;;;7.17;;
51866;SDS011;52862;52.504;13.480;2023-04-24T02:55:33;12.63;;;6.17;;
51866;SDS011;52862;52.504;13.480;2023-04-24T02:58:00;11.87;;;6.40;;
51866;SDS011;52862;52.504;13.480;2023-04-24T03:00:26;11.67;;;5.90;;
51866;SDS011;52862;52.504;13.480;2023-04-24T03:02:54;9.20;;;6.37;;
51866;SDS011;52862;52.504;13.480;2023-04-24T03:05:21;12.43;;;6.60;;
51866;SDS011;52862;52.504;13.480;2023-04-24T03:07:48;13.27;;;6.27;;
51866;SDS011;52862;52.504;13.480;2023-04-24T03:10:15;9.80;;;6.33;;
51866;SDS011;52862;52.504;13.480;2023-04-24T03:12:41;10.37;;;6.47;;
51866;SDS011;52862;52.504;13.480;2023-04-24T03:15:08;10.60;;;6.97;;
51866;SDS011;52862;52.504;13.480;2023-04-24T03:17:35;13.37;;;6.63;;
51866;SDS011;52862;52.504;13.480;2023-04-24T03:20:03;10.07;;;7.17;;
51866;SDS011;52862;52.504;13.480;2023-04-24T03:22:31;11.37;;;6.90;;
51866;SDS011;52862;52.504;13.480;2023-04-24T03:24:59;14.67;;;7.27;;
51866;SDS011;52862;52.504;13.480;2023-04-24T03:27:26;10.73;;;7.10;;
51866;SDS011;52862;52.504;13.480;2023-04-24T03:29:52;11.70;;;7.13;;
51866;SDS011;52862;52.504;13.480;2023-04-24T03:32:20;10.90;;;6.87;;
51866;SDS011;52862;52.504;13.480;2023-04-24T03:34:48;11.33;;;6.40;;
51866;SDS011;52862;52.504;13.480;2023-04-24T03:37:16;10.93;;;6.93;;
51866;SDS011;52862;52.504;13.480;2023-04-24T03:39:42;10.00;;;6.23;;
51866;SDS011;52862;52.504;13.480;2023-04-24T03:42:10;13.67;;;6.97;;
51866;SDS011;52862;52.504;13.480;2023-04-24T03:44:36;10.47;;;7.13;;
51866;SDS011;52862;52.504;13.480;2023-04-24T03:47:03;11.77;;;7.30;;
51866;SDS011;52862;52.504;13.480;2023-04-24T03:49:30;11.90;;;6.67;;
51866;SDS011;52862;52.504;13.480;2023-04-24T03:51:57;13.83;;;6.87;;
51866;SDS011;52862;52.504;13.480;2023-04-24T03:54:24;13.37;;;6.97;;
51866;SDS011;52862;52.504;13.480;2023-04-24T03:56:51;12.10;;;7.07;;
51866;SDS011;52862;52.504;13.480;2023-04-24T03:59:18;9.43;;;7.03;;
51866;SDS011;52862;52.504;13.480;2023-04-24T04:01:45;14.20;;;7.37;;
51866;SDS011;52862;52.504;13.480;2023-04-24T04:04:12;14.50;;;7.33;;
51866;SDS011;52862;52.504;13.480;2023-04-24T04:06:39;13.57;;;7.40;;
51866;SDS011;52862;52.504;13.480;2023-04-24T04:09:06;13.67;;;7.10;;
51866;SDS011;52862;52.504;13.480;2023-04-24T04:11:34;14.20;;;6.90;;
51866;SDS011;52862;52.504;13.480;2023-04-24T04:14:01;14.77;;;7.67;;
51866;SDS011;52862;52.504;13.480;2023-04-24T04:16:28;15.87;;;6.53;;
51866;SDS011;52862;52.504;13.480;2023-04-24T04:18:54;14.97;;;7.07;;
51866;SDS011;52862;52.504;13.480;2023-04-24T04:21:21;11.53;;;7.07;;
51866;SDS011;52862;52.504;13.480;2023-04-24T04:23:48;9.73;;;6.50;;
51866;SDS011;52862;52.504;13.480;2023-04-24T04:26:15;8.83;;;6.73;;
51866;SDS011;52862;52.504;13.480;2023-04-24T04:28:42;11.77;;;6.10;;
51866;SDS011;52862;52.504;13.480;2023-04-24T04:31:10;11.93;;;7.10;;
51866;SDS011;52862;52.504;13.480;2023-04-24T04:33:36;12.50;;;6.30;;
51866;SDS011;52862;52.504;13.480;2023-04-24T04:36:05;10.40;;;6.60;;
51866;SDS011;52862;52.504;13.480;2023-04-24T04:38:31;11.67;;;6.93;;
51866;SDS011;52862;52.504;13.480;2023-04-24T04:40:59;14.57;;;6.67;;
51866;SDS011;52862;52.504;13.480;2023-04-24T04:43:25;21.27;;;6.20;;
51866;SDS011;52862;52.504;13.480;2023-04-24T04:45:53;11.53;;;6.60;;
51866;SDS011;52862;52.504;13.480;2023-04-24T04:48:24;10.13;;;6.23;;
51866;SDS011;52862;52.504;13.480;2023-04-24T04:50:51;13.77;;;6.43;;
51866;SDS011;52862;52.504;13.480;2023-04-24T04:53:17;12.47;;;6.37;;
51866;SDS011;52862;52.504;13.480;2023-04-24T04:55:44;9.00;;;5.53;;
51866;SDS011;52862;52.504;13.480;2023-04-24T04:58:11;16.27;;;5.87;;
51866;SDS011;52862;52.504;13.480;2023-04-24T05:00:38;7.97;;;5.57;;
51866;SDS011;52862;52.504;13.480;2023-04-24T05:03:05;14.17;;;5.30;;
51866;SDS011;52862;52.504;13.480;2023-04-24T05:05:46;14.07;;;5.70;;
51866;SDS011;52862;52.504;13.480;2023-04-24T05:08:12;13.80;;;5.43;;
51866;SDS011;52862;52.504;13.480;2023-04-24T05:10:51;14.07;;;5.03;;
51866;SDS011;52862;52.504;13.480;2023-04-24T05:13:18;11.03;;;5.47;;
51866;SDS011;52862;52.504;13.480;2023-04-24T05:15:57;14.03;;;5.03;;
51866;SDS011;52862;52.504;13.480;2023-04-24T05:18:25;33.30;;;8.57;;
51866;SDS011;52862;52.504;13.480;2023-04-24T05:20:52;8.33;;;4.73;;
51866;SDS011;52862;52.504;13.480;2023-04-24T05:23:18;16.67;;;4.77;;
51866;SDS011;52862;52.504;13.480;2023-04-24T05:25:45;11.03;;;5.17;;
51866;SDS011;52862;52.504;13.480;2023-04-24T05:28:12;9.27;;;5.30;;
51866;SDS011;52862;52.504;13.480;2023-04-24T05:30:38;7.97;;;4.90;;
51866;SDS011;52862;52.504;13.480;2023-04-24T05:33:05;6.73;;;4.27;;
51866;SDS011;52862;52.504;13.480;2023-04-24T05:35:33;6.87;;;4.10;;
51866;SDS011;52862;52.504;13.480;2023-04-24T05:37:59;8.83;;;4.57;;
51866;SDS011;52862;52.504;13.480;2023-04-24T05:40:26;6.20;;;4.37;;
51866;SDS011;52862;52.504;13.480;2023-04-24T05:42:53;15.93;;;4.30;;
51866;SDS011;52862;52.504;13.480;2023-04-24T05:45:20;7.80;;;3.70;;
51866;SDS011;52862;52.504;13.480;2023-04-24T05:47:46;17.43;;;3.93;;
51866;SDS011;52862;52.504;13.480;2023-04-24T05:50:13;6.73;;;3.50;;
51866;SDS011;52862;52.504;13.480;2023-04-24T05:52:41;8.97;;;4.20;;
51866;SDS011;52862;52.504;13.480;2023-04-24T05:55:07;12.23;;;3.73;;
51866;SDS011;52862;52.504;13.480;2023-04-24T05:57:34;9.10;;;3.83;;
51866;SDS011;52862;52.504;13.480;2023-04-24T06:00:01;8.23;;;3.30;;
51866;SDS011;52862;52.504;13.480;2023-04-24T06:02:29;3.83;;;3.00;;
51866;SDS011;52862;52.504;13.480;2023-04-24T06:04:58;10.47;;;3.70;;
51866;SDS011;52862;52.504;13.480;2023-04-24T06:07:25;16.73;;;3.30;;
51866;SDS011;52862;52.504;13.480;2023-04-24T06:09:52;10.17;;;3.63;;
51866;SDS011;52862;52.504;13.480;2023-04-24T06:12:19;19.93;;;3.20;;
51866;SDS011;52862;52.504;13.480;2023-04-24T06:14:46;6.40;;;3.07;;
51866;SDS011;52862;52.504;13.480;2023-04-24T06:17:13;21.43;;;3.13;;
51866;SDS011;52862;52.504;13.480;2023-04-24T06:19:39;13.53;;;2.73;;
51866;SDS011;52862;52.504;13.480;2023-04-24T06:22:09;14.57;;;2.77;;
51866;SDS011;52862;52.504;13.480;2023-04-24T06:24:36;10.30;;;2.77;;
51866;SDS011;52862;52.504;13.480;2023-04-24T06:27:03;5.47;;;2.70;;
51866;SDS011;52862;52.504;13.480;2023-04-24T06:29:30;6.27;;;2.30;;
51866;SDS011;52862;52.504;13.480;2023-04-24T06:31:57;6.87;;;2.03;;
51866;SDS011;52862;52.504;13.480;2023-04-24T06:34:23;4.93;;;2.10;;
51866;SDS011;52862;52.504;13.480;2023-04-24T06:36:50;4.77;;;2.20;;
51866;SDS011;52862;52.504;13.480;2023-04-24T06:39:17;13.00;;;2.73;;
51866;SDS011;52862;52.504;13.480;2023-04-24T06:41:44;40.13;;;3.97;;
51866;SDS011;52862;52.504;13.480;2023-04-24T06:44:11;5.27;;;2.23;;
51866;SDS011;52862;52.504;13.480;2023-04-24T06:46:40;19.37;;;1.90;;
51866;SDS011;52862;52.504;13.480;2023-04-24T06:49:07;5.57;;;2.20;;
51866;SDS011;52862;52.504;13.480;2023-04-24T06:51:34;13.43;;;1.77;;
51866;SDS011;52862;52.504;13.480;2023-04-24T06:54:00;7.73;;;2.20;;
51866;SDS011;52862;52.504;13.480;2023-04-24T06:56:27;5.40;;;1.70;;
51866;SDS011;52862;52.504;13.480;2023-04-24T06:58:54;10.63;;;1.53;;
51866;SDS011;52862;52.504;13.480;2023-04-24T07:01:22;3.80;;;1.80;;
51866;SDS011;52862;52.504;13.480;2023-04-24T07:03:48;10.33;;;1.90;;
51866;SDS011;52862;52.504;13.480;2023-04-24T07:06:15;7.27;;;1.73;;
51866;SDS011;52862;52.504;13.480;2023-04-24T07:08:44;3.40;;;1.47;;
51866;SDS011;52862;52.504;13.480;2023-04-24T07:11:10;2.23;;;1.40;;
51866;SDS011;52862;52.504;13.480;2023-04-24T07:13:37;4.70;;;1.67;;
51866;SDS011;52862;52.504;13.480;2023-04-24T07:16:07;2.77;;;1.50;;
51866;SDS011;52862;52.504;13.480;2023-04-24T07:18:34;4.83;;;1.60;;
51866;SDS011;52862;52.504;13.480;2023-04-24T07:21:02;3.33;;;1.50;;
51866;SDS011;52862;52.504;13.480;2023-04-24T07:23:28;2.50;;;1.27;;
51866;SDS011;52862;52.504;13.480;2023-04-24T07:25:56;4.83;;;1.60;;
51866;SDS011;52862;52.504;13.480;2023-04-24T07:28:23;1.90;;;1.20;;
51866;SDS011;52862;52.504;13.480;2023-04-24T07:30:50;4.53;;;1.37;;
51866;SDS011;52862;52.504;13.480;2023-04-24T07:33:19;9.07;;;1.47;;
51866;SDS011;52862;52.504;13.480;2023-04-24T07:35:46;9.60;;;2.33;;
51866;SDS011;52862;52.504;13.480;2023-04-24T07:38:13;6.60;;;1.30;;
51866;SDS011;52862;52.504;13.480;2023-04-24T07:40:40;3.43;;;1.40;;
51866;SDS011;52862;52.504;13.480;2023-04-24T07:43:07;6.07;;;1.67;;
51866;SDS011;52862;52.504;13.480;2023-04-24T07:45:34;4.20;;;1.27;;
51866;SDS011;52862;52.504;13.480;2023-04-24T07:48:03;6.13;;;1.37;;
51866;SDS011;52862;52.504;13.480;2023-04-24T07:50:30;5.60;;;1.27;;
51866;SDS011;52862;52.504;13.480;2023-04-24T07:52:58;4.83;;;1.10;;
51866;SDS011;52862;52.504;13.480;2023-04-24T07:55:25;1.77;;;0.90;;
51866;SDS011;52862;52.504;13.480;2023-04-24T07:57:53;2.60;;;1.03;;
51866;SDS011;52862;52.504;13.480;2023-04-24T08:00:20;4.67;;;0.97;;
51866;SDS011;52862;52.504;13.480;2023-04-24T08:02:47;2.33;;;0.77;;
51866;SDS011;52862;52.504;13.480;2023-04-24T08:05:14;2.53;;;0.77;;
51866;SDS011;52862;52.504;13.480;2023-04-24T08:07:42;4.33;;;0.90;;
51866;SDS011;52862;52.504;13.480;2023-04-24T08:10:10;5.53;;;1.10;;
51866;SDS011;52862;52.504;13.480;2023-04-24T08:12:37;2.93;;;1.10;;
51866;SDS011;52862;52.504;13.480;2023-04-24T08:15:04;1.67;;;0.73;;
51866;SDS011;52862;52.504;13.480;2023-04-24T08:17:31;1.63;;;0.97;;
51866;SDS011;52862;52.504;13.480;2023-04-24T08:19:58;1.30;;;1.00;;
51866;SDS011;52862;52.504;13.480;2023-04-24T08:22:26;2.83;;;0.97;;
51866;SDS011;52862;52.504;13.480;2023-04-24T08:24:53;2.10;;;1.20;;
51866;SDS011;52862;52.504;13.480;2023-04-24T08:27:22;3.30;;;1.67;;
51866;SDS011;52862;52.504;13.480;2023-04-24T08:29:49;9.60;;;1.30;;
51866;SDS011;52862;52.504;13.480;2023-04-24T08:32:15;6.50;;;1.53;;
51866;SDS011;52862;52.504;13.480;2023-04-24T08:34:42;8.30;;;1.20;;
51866;SDS011;52862;52.504;13.480;2023-04-24T08:37:09;1.87;;;1.00;;
51866;SDS011;52862;52.504;13.480;2023-04-24T08:39:36;8.73;;;1.10;;
51866;SDS011;52862;52.504;13.480;2023-04-24T08:42:03;3.70;;;0.90;;
51866;SDS011;52862;52.504;13.480;2023-04-24T08:44:35;14.93;;;1.30;;
51866;SDS011;52862;52.504;13.480;2023-04-24T08:47:02;5.40;;;1.10;;
51866;SDS011;52862;52.504;13.480;2023-04-24T08:49:30;11.37;;;1.10;;
51866;SDS011;52862;52.504;13.480;2023-04-24T08:51:57;1.97;;;1.07;;
51866;SDS011;52862;52.504;13.480;2023-04-24T08:57:14;2.75;;;1.00;;
51866;SDS011;52862;52.504;13.480;2023-04-24T08:59:41;6.57;;;1.43;;
51866;SDS011;52862;52.504;13.480;2023-04-24T09:02:10;1.30;;;0.70;;
51866;SDS011;52862;52.504;13.480;2023-04-24T09:04:38;8.65;;;0.73;;
51866;SDS011;52862;52.504;13.480;2023-04-24T09:07:07;2.27;;;1.00;;
51866;SDS011;52862;52.504;13.480;2023-04-24T09:09:35;6.23;;;0.90;;
51866;SDS011;52862;52.504;13.480;2023-04-24T09:12:04;2.50;;;0.90;;
51866;SDS011;52862;52.504;13.480;2023-04-24T09:14:31;6.17;;;1.00;;
51866;SDS011;52862;52.504;13.480;2023-04-24T09:16:59;1.83;;;0.80;;
51866;SDS011;52862;52.504;13.480;2023-04-24T09:19:26;2.20;;;0.87;;
51866;SDS011;52862;52.504;13.480;2023-04-24T09:21:53;7.57;;;1.03;;
51866;SDS011;52862;52.504;13.480;2023-04-24T09:24:20;6.97;;;1.20;;
51866;SDS011;52862;52.504;13.480;2023-04-24T09:26:48;3.37;;;0.80;;
51866;SDS011;52862;52.504;13.480;2023-04-24T09:29:23;6.40;;;0.90;;
51866;SDS011;52862;52.504;13.480;2023-04-24T09:31:50;0.80;;;0.70;;
51866;SDS011;52862;52.504;13.480;2023-04-24T09:34:21;8.90;;;0.90;;
51866;SDS011;52862;52.504;13.480;2023-04-24T09:36:49;1.60;;;1.00;;
51866;SDS011;52862;52.504;13.480;2023-04-24T09:39:16;3.80;;;0.93;;
51866;SDS011;52862;52.504;13.480;2023-04-24T09:41:46;5.10;;;1.10;;
51866;SDS011;52862;52.504;13.480;2023-04-24T09:44:14;12.80;;;1.20;;
51866;SDS011;52862;52.504;13.480;2023-04-24T09:46:43;5.53;;;1.20;;
51866;SDS011;52862;52.504;13.480;2023-04-24T09:49:12;6.30;;;1.10;;
51866;SDS011;52862;52.504;13.480;2023-04-24T09:51:41;2.40;;;0.90;;
51866;SDS011;52862;52.504;13.480;2023-04-24T09:54:13;6.00;;;0.97;;
51866;SDS011;52862;52.504;13.480;2023-04-24T09:56:42;10.10;;;1.27;;
51866;SDS011;52862;52.504;13.480;2023-04-24T09:59:10;2.20;;;1.00;;
51866;SDS011;52862;52.504;13.480;2023-04-24T10:01:40;8.10;;;1.23;;
51866;SDS011;52862;52.504;13.480;2023-04-24T10:04:16;6.73;;;1.30;;
51866;SDS011;52862;52.504;13.480;2023-04-24T10:06:45;3.60;;;1.20;;
51866;SDS011;52862;52.504;13.480;2023-04-24T10:09:12;2.07;;;0.93;;
51866;SDS011;52862;52.504;13.480;2023-04-24T10:11:41;5.13;;;1.00;;
51866;SDS011;52862;52.504;13.480;2023-04-24T10:14:09;1.53;;;0.90;;
51866;SDS011;52862;52.504;13.480;2023-04-24T10:16:38;2.00;;;1.20;;
51866;SDS011;52862;52.504;13.480;2023-04-24T10:19:06;12.47;;;1.37;;
51866;SDS011;52862;52.504;13.480;2023-04-24T10:21:36;3.80;;;1.10;;
51866;SDS011;52862;52.504;13.480;2023-04-24T10:24:08;3.60;;;1.10;;
51866;SDS011;52862;52.504;13.480;2023-04-24T10:26:36;6.97;;;1.10;;
51866;SDS011;52862;52.504;13.480;2023-04-24T10:29:04;9.00;;;1.37;;
51866;SDS011;52862;52.504;13.480;2023-04-24T10:31:36;3.57;;;1.50;;
51866;SDS011;52862;52.504;13.480;2023-04-24T10:34:03;3.00;;;1.10;;
51866;SDS011;52862;52.504;13.480;2023-04-24T10:36:31;6.17;;;1.10;;
51866;SDS011;52862;52.504;13.480;2023-04-24T10:39:03;1.23;;;0.80;;
51866;SDS011;52862;52.504;13.480;2023-04-24T10:41:36;1.90;;;1.00;;
51866;SDS011;52862;52.504;13.480;2023-04-24T10:44:04;2.67;;;1.13;;
51866;SDS011;52862;52.504;13.480;2023-04-24T10:46:31;2.93;;;1.20;;
51866;SDS011;52862;52.504;13.480;2023-04-24T10:48:58;6.80;;;1.23;;
51866;SDS011;52862;52.504;13.480;2023-04-24T10:51:42;3.50;;;1.20;;
51866;SDS011;52862;52.504;13.480;2023-04-24T10:54:22;8.70;;;1.37;;
51866;SDS011;52862;52.504;13.480;2023-04-24T10:56:51;4.30;;;1.17;;
51866;SDS011;52862;52.504;13.480;2023-04-24T10:59:25;4.30;;;1.07;;
51866;SDS011;52862;52.504;13.480;2023-04-24T11:01:52;13.97;;;1.00;;
51866;SDS011;52862;52.504;13.480;2023-04-24T11:04:28;12.43;;;1.40;;
51866;SDS011;52862;52.504;13.480;2023-04-24T11:06:56;3.60;;;1.33;;
51866;SDS011;52862;52.504;13.480;2023-04-24T11:09:25;6.27;;;1.00;;
51866;SDS011;52862;52.504;13.480;2023-04-24T11:12:03;3.37;;;1.50;;
51866;SDS011;52862;52.504;13.480;2023-04-24T11:17:32;3.07;;;1.20;;
51866;SDS011;52862;52.504;13.480;2023-04-24T11:20:03;3.30;;;1.00;;
51866;SDS011;52862;52.504;13.480;2023-04-24T11:22:52;6.33;;;1.47;;
51866;SDS011;52862;52.504;13.480;2023-04-24T11:25:21;6.33;;;1.30;;
51866;SDS011;52862;52.504;13.480;2023-04-24T11:27:49;3.72;;;1.10;;
51866;SDS011;52862;52.504;13.480;2023-04-24T11:30:29;3.05;;;1.10;;
51866;SDS011;52862;52.504;13.480;2023-04-24T11:32:56;10.05;;;1.42;;
51866;SDS011;52862;52.504;13.480;2023-04-24T11:35:29;2.03;;;1.20;;
51866;SDS011;52862;52.504;13.480;2023-04-24T11:37:56;4.82;;;1.15;;
51866;SDS011;52862;52.504;13.480;2023-04-24T11:40:26;8.40;;;1.33;;
51866;SDS011;52862;52.504;13.480;2023-04-24T11:42:54;7.63;;;1.60;;
51866;SDS011;52862;52.504;13.480;2023-04-24T11:45:21;18.47;;;2.30;;
51866;SDS011;52862;52.504;13.480;2023-04-24T11:47:49;3.40;;;1.27;;
51866;SDS011;52862;52.504;13.480;2023-04-24T11:50:17;3.97;;;1.50;;
51866;SDS011;52862;52.504;13.480;2023-04-24T11:52:45;3.37;;;1.50;;
51866;SDS011;52862;52.504;13.480;2023-04-24T11:55:22;2.70;;;1.30;;
51866;SDS011;52862;52.504;13.480;2023-04-24T11:57:55;8.50;;;1.53;;
51866;SDS011;52862;52.504;13.480;2023-04-24T12:00:23;2.13;;;1.10;;
51866;SDS011;52862;52.504;13.480;2023-04-24T12:02:51;6.07;;;1.67;;
51866;SDS011;52862;52.504;13.480;2023-04-24T12:05:30;7.60;;;1.30;;
51866;SDS011;52862;52.504;13.480;2023-04-24T12:07:57;3.77;;;1.80;;
51866;SDS011;52862;52.504;13.480;2023-04-24T12:10:25;5.20;;;1.80;;
51866;SDS011;52862;52.504;13.480;2023-04-24T12:12:55;6.73;;;1.83;;
51866;SDS011;52862;52.504;13.480;2023-04-24T12:15:22;3.03;;;1.63;;
51866;SDS011;52862;52.504;13.480;2023-04-24T12:17:50;3.13;;;1.20;;
51866;SDS011;52862;52.504;13.480;2023-04-24T12:20:23;2.53;;;1.40;;
51866;SDS011;52862;52.504;13.480;2023-04-24T12:22:51;2.45;;;1.17;;
51866;SDS011;52862;52.504;13.480;2023-04-24T12:25:20;4.83;;;1.23;;
51866;SDS011;52862;52.504;13.480;2023-04-24T12:27:52;2.10;;;1.10;;
51866;SDS011;52862;52.504;13.480;2023-04-24T12:30:20;3.63;;;1.38;;
51866;SDS011;52862;52.504;13.480;2023-04-24T12:32:52;3.50;;;1.23;;
51866;SDS011;52862;52.504;13.480;2023-04-24T12:35:21;3.15;;;1.30;;
51866;SDS011;52862;52.504;13.480;2023-04-24T12:37:49;11.48;;;1.20;;
51866;SDS011;52862;52.504;13.480;2023-04-24T12:40:16;5.30;;;1.00;;
51866;SDS011;52862;52.504;13.480;2023-04-24T12:42:44;2.90;;;1.20;;
51866;SDS011;52862;52.504;13.480;2023-04-24T12:45:12;6.63;;;1.27;;
51866;SDS011;52862;52.504;13.480;2023-04-24T12:47:40;4.70;;;1.30;;
51866;SDS011;52862;52.504;13.480;2023-04-24T12:50:08;12.70;;;1.23;;
51866;SDS011;52862;52.504;13.480;2023-04-24T12:52:35;14.33;;;1.77;;
51866;SDS011;52862;52.504;13.480;2023-04-24T12:55:03;2.78;;;1.17;;
51866;SDS011;52862;52.504;13.480;2023-04-24T12:57:30;3.50;;;1.33;;
51866;SDS011;52862;52.504;13.480;2023-04-24T12:59:57;2.93;;;1.00;;
51866;SDS011;52862;52.504;13.480;2023-04-24T13:02:25;4.00;;;1.00;;
51866;SDS011;52862;52.504;13.480;2023-04-24T13:04:54;4.03;;;1.30;;
51866;SDS011;52862;52.504;13.480;2023-04-24T13:07:21;3.60;;;0.90;;
51866;SDS011;52862;52.504;13.480;2023-04-24T13:09:48;3.13;;;0.90;;
51866;SDS011;52862;52.504;13.480;2023-04-24T13:12:15;3.17;;;1.10;;
51866;SDS011;52862;52.504;13.480;2023-04-24T13:14:42;6.38;;;0.90;;
51866;SDS011;52862;52.504;13.480;2023-04-24T13:17:09;2.63;;;1.05;;
51866;SDS011;52862;52.504;13.480;2023-04-24T13:19:37;5.73;;;1.10;;
51866;SDS011;52862;52.504;13.480;2023-04-24T13:22:06;8.77;;;0.83;;
51866;SDS011;52862;52.504;13.480;2023-04-24T13:24:34;2.07;;;0.90;;
51866;SDS011;52862;52.504;13.480;2023-04-24T13:27:03;2.33;;;0.63;;
51866;SDS011;52862;52.504;13.480;2023-04-24T13:29:30;3.05;;;1.35;;
51866;SDS011;52862;52.504;13.480;2023-04-24T13:31:57;2.00;;;0.80;;
51866;SDS011;52862;52.504;13.480;2023-04-24T13:34:24;2.28;;;1.00;;
51866;SDS011;52862;52.504;13.480;2023-04-24T13:36:52;2.00;;;0.77;;
51866;SDS011;52862;52.504;13.480;2023-04-24T13:39:20;5.32;;;0.85;;
51866;SDS011;52862;52.504;13.480;2023-04-24T13:41:47;3.38;;;1.10;;
51866;SDS011;52862;52.504;13.480;2023-04-24T13:44:14;5.22;;;1.00;;
51866;SDS011;52862;52.504;13.480;2023-04-24T13:46:42;5.30;;;0.90;;
51866;SDS011;52862;52.504;13.480;2023-04-24T13:49:10;2.13;;;1.23;;
51866;SDS011;52862;52.504;13.480;2023-04-24T13:51:37;2.83;;;1.00;;
51866;SDS011;52862;52.504;13.480;2023-04-24T13:54:04;6.75;;;1.33;;
51866;SDS011;52862;52.504;13.480;2023-04-24T13:56:31;4.73;;;1.17;;
51866;SDS011;52862;52.504;13.480;2023-04-24T13:58:58;0.73;;;0.63;;
51866;SDS011;52862;52.504;13.480;2023-04-24T14:01:25;11.45;;;0.85;;
51866;SDS011;52862;52.504;13.480;2023-04-24T14:03:52;3.42;;;0.85;;
51866;SDS011;52862;52.504;13.480;2023-04-24T14:06:20;1.92;;;1.02;;
51866;SDS011;52862;52.504;13.480;2023-04-24T14:09:02;3.80;;;1.10;;
51866;SDS011;52862;52.504;13.480;2023-04-24T14:11:41;5.47;;;0.80;;
51866;SDS011;52862;52.504;13.480;2023-04-24T14:14:08;5.55;;;1.00;;
51866;SDS011;52862;52.504;13.480;2023-04-24T14:16:35;1.40;;;0.85;;
51866;SDS011;52862;52.504;13.480;2023-04-24T14:19:04;2.22;;;1.15;;
51866;SDS011;52862;52.504;13.480;2023-04-24T14:21:37;5.68;;;1.63;;
51866;SDS011;52862;52.504;13.480;2023-04-24T14:24:04;2.15;;;0.95;;
51866;SDS011;52862;52.504;13.480;2023-04-24T14:26:30;8.68;;;1.85;;
51866;SDS011;52862;52.504;13.480;2023-04-24T14:29:07;3.70;;;0.80;;
51866;SDS011;52862;52.504;13.480;2023-04-24T14:31:43;1.52;;;1.00;;
51866;SDS011;52862;52.504;13.480;2023-04-24T14:34:10;5.57;;;1.02;;
51866;SDS011;52862;52.504;13.480;2023-04-24T14:36:37;0.70;;;0.70;;
51866;SDS011;52862;52.504;13.480;2023-04-24T14:39:09;4.50;;;0.83;;
51866;SDS011;52862;52.504;13.480;2023-04-24T14:41:39;6.13;;;1.00;;